KPOB/POB METAR and TAF weather

Enter ICAO airport designator
Station Type Date Time Source
KPOB METAR 2022/06/28 08:56 UTC NOAA

KPOB 280856Z AUTO 00000KT 10SM BKN008 OVC070 21/21 A3009 RMK AO2 SLP190 T02110206 51008 TSNO $


Station Type Date Time Source
KPOB Decoded METAR 2022/06/28 08:56 UTC NOAA

Pope Air Force Base, NC, United States (KPOB) 35-10N 079-02W 61M
Jun 28, 2022 - 04:56 AM EDT / 2022.06.28 0856 UTC
Wind: Calm:0
Visibility: 10 mile(s):0
Sky conditions: overcast
Temperature: 70.0 F (21.1 C)
Dew Point: 69.1 F (20.6 C)
Relative Humidity: 96%
Pressure (altimeter): 30.09 in. Hg (1018 hPa)
Pressure tendency: 0.02 inches (0.8 hPa) higher than three hours ago
ob: KPOB 280856Z AUTO 00000KT 10SM BKN008 OVC070 21/21 A3009 RMK AO2 SLP190 T02110206 51008 TSNO
cycle: 9

Station Type Date Time Source
KPOB TAF 2022/06/28 01:03 UTC NOAA

TAF TAF KPOB 280100Z 2801/2907 27007KT 9999 SCT080 BKN250 QNH3000INS
BECMG 2804/2805 32008KT 8000 -SHRA VCTS SCT012 BKN025 OVC045CB QNH3003INS
BECMG 2807/2808 02006KT 6000 -RA BR BKN012 OVC025 QNH3008INS
BECMG 2813/2814 04012G18KT 9999 NSW SCT045 SCT080 QNH3012INS
BECMG 2819/2820 07007KT 9999 FEW025 SCT045 BKN080 QNH3015INS TX29/2819Z TN19/2810Z LAST NO
AMDS AFT 2802 NEXT 2817

Example: see airport list